APL Managua — V2DG7 — position and weather

sailwx.info

Track history (hours):
 
Tides and Currents Weather Stations Pressure Air Temp Water Temp Dewpoint Dewpoint Depression Visibility Wind Speed Wind Dir Waves Ship Positions

APL Managua

Last reported at 2017-Sep-20 22:57 UTC. Time now 2017-Sep-25 13:37 UTC.
Position N 37°26' W 027°03'.

Length 166 m; draft 7.9 m.

Type: Ship. MMSI: 305208000.

Date/timePositionNaut miles runAvg speedWind from/ knotsBaromVisibWave heightAir tempDewpointWater temp
2017-Sep-20 22:57N 37°26' W 027°03'918.5
2017-Sep-20 22:28N 37°30' W 026°53'918.3
2017-Sep-20 22:00N 37°35' W 026°44'918.5
2017-Sep-20 21:30N 37°39' W 026°34'918.8
2017-Sep-20 21:00N 37°44' W 026°23'918.8
2017-Sep-20 20:31N 37°50' W 026°14'918.8
2017-Sep-20 20:01N 37°56' W 026°05'1019.3
2017-Sep-20 19:31N 38°03' W 025°56'918.9
2017-Sep-20 19:01N 38°09' W 025°47'1019.1
2017-Sep-20 18:31N 38°15' W 025°38'1019.2
2017-Sep-20 18:01N 38°22' W 025°29'918.8
2017-Sep-20 17:31N 38°28' W 025°20'1019.2
2017-Sep-20 17:00N 38°34' W 025°11'1019.5
2017-Sep-20 16:30N 38°41' W 025°01'1019.1
2017-Sep-20 16:01N 38°47' W 024°52'1119.3
2017-Sep-20 15:27N 38°54' W 024°42'  
2017-Sep-18 07:33N 48°57' W 005°42'6318.4
2017-Sep-18 04:07N 49°29' W 004°18'917.4
2017-Sep-18 03:37N 49°33' W 004°06'217.4
2017-Sep-18 03:30N 49°34' W 004°04'917.5
2017-Sep-18 03:00N 49°38' W 003°52'917.8
2017-Sep-18 02:30N 49°43' W 003°40'918.2
2017-Sep-18 02:00N 49°47' W 003°27'918.7
2017-Sep-18 01:30N 49°51' W 003°14'1019.5
2017-Sep-18 01:00N 49°55' W 003°01'1020.2
2017-Sep-18 00:30N 49°59' W 002°46'3121.0
2017-Sep-17 23:02N 50°01' W 001°58'020.4
2017-Sep-17 23:00N 50°01' W 001°57'1121.2
2017-Sep-17 22:30N 49°60' W 001°41'1020.3
2017-Sep-17 22:00N 49°59' W 001°25'1019.6
2017-Sep-17 21:30N 49°57' W 001°10'918.0
2017-Sep-17 21:01N 49°55' W 000°57'918.1
2017-Sep-17 20:30N 49°49' W 000°46'1717.8
2017-Sep-17 19:34N 49°38' W 000°26'117.9
2017-Sep-17 19:29N 49°37' W 000°24'917.5
2017-Sep-17 19:00N 49°32' W 000°14'817.1
2017-Sep-17 18:30N 49°29' W 000°02'713.7
2017-Sep-17 18:01N 49°26' E 000°08'612.5
2017-Sep-17 17:31N 49°26' E 000°17'611.4
2017-Sep-17 17:00N 49°27' E 000°26'2 0.2
2017-Sep-17 07:29N 49°28' E 000°28'613.4
2017-Sep-17 07:01N 49°26' E 000°19'713.3
2017-Sep-17 06:30N 49°26' E 000°09'713.8
2017-Sep-17 06:01N 49°28' W 000°01'5 9.3
2017-Sep-17 05:30N 49°30' W 000°08'3 5.7
2017-Sep-17 05:00N 49°30' W 000°12'3 6.7
2017-Sep-17 04:30N 49°32' W 000°16'3 7.0
2017-Sep-17 04:00N 49°35' W 000°19'4 7.1
2017-Sep-17 03:30N 49°38' W 000°23'1 1.3
2017-Sep-17 02:33N 49°38' W 000°21'0 5.9
2017-Sep-17 02:30N 49°37' W 000°21'13 9.2
2017-Sep-17 01:05N 49°50' W 000°24'3510.3
2017-Sep-16 21:40N 50°25' W 000°20'210.5
2017-Sep-16 21:30N 50°26' W 000°17'510.7
2017-Sep-16 21:00N 50°27' W 000°09'510.6
2017-Sep-16 20:30N 50°28' W 000°01'510.5
2017-Sep-16 20:00N 50°30' E 000°07'510.6
2017-Sep-16 19:30N 50°31' E 000°15'510.8
2017-Sep-16 19:00N 50°32' E 000°23'510.6
2017-Sep-16 18:30N 50°34' E 000°31'510.4
2017-Sep-16 18:00N 50°35' E 000°39'510.6
2017-Sep-16 17:29N 50°39' E 000°46'510.6
2017-Sep-16 17:00N 50°42' E 000°53'510.4
2017-Sep-16 16:30N 50°44' E 000°59'610.4
2017-Sep-16 15:56N 50°48' E 001°07'510.5
2017-Sep-16 15:28N 50°50' E 001°14'510.3
2017-Sep-16 15:00N 50°54' E 001°18'611.0
2017-Sep-16 14:30N 50°59' E 001°23'611.0
2017-Sep-16 14:00N 51°03' E 001°30'510.7
2017-Sep-16 13:30N 51°06' E 001°35'510.8
2017-Sep-16 13:00N 51°10' E 001°41'510.6
2017-Sep-16 12:30N 51°15' E 001°47'510.6
2017-Sep-16 12:00N 51°19' E 001°50'510.8
2017-Sep-16 11:30N 51°24' E 001°55'510.6
2017-Sep-16 11:00N 51°28' E 001°60'510.6
2017-Sep-16 10:30N 51°32' E 002°05'510.6
2017-Sep-16 10:00N 51°37' E 002°10'510.4
2017-Sep-16 09:30N 51°41' E 002°16'610.2
2017-Sep-16 08:56N 51°45' E 002°22'4910.6
2017-Sep-16 04:18N 52°04' E 003°36'413.4
2017-Sep-16 04:00N 52°03' E 003°43'713.7
2017-Sep-16 03:31N 52°02' E 003°53'612.0
2017-Sep-16 03:01N 51°60' E 004°02'815.2
2017-Sep-16 02:30N 51°56' E 004°13'510.8
2017-Sep-16 02:00N 51°54' E 004°21'3 7.0
2017-Sep-16 01:31N 51°54' E 004°27'0 0.4
2017-Sep-16 00:57N 51°54' E 004°26'0 0.0
2017-Sep-16 00:27N 51°54' E 004°26'0 0.0
2017-Sep-15 23:57N 51°54' E 004°26'0 0.0
2017-Sep-15 23:27N 51°54' E 004°26'0 0.0
2017-Sep-15 22:57N 51°54' E 004°26'0 0.0
2017-Sep-15 22:27N 51°54' E 004°26'0 0.0
2017-Sep-15 21:57N 51°54' E 004°26'0 0.0
2017-Sep-15 21:27N 51°54' E 004°26'0 0.0
2017-Sep-15 20:57N 51°54' E 004°26'0 0.0
2017-Sep-15 20:27N 51°54' E 004°26'0 0.0
2017-Sep-15 19:57N 51°54' E 004°26'0 0.0
2017-Sep-15 19:27N 51°54' E 004°26'0 0.0
2017-Sep-15 18:57N 51°54' E 004°26'0 0.0
2017-Sep-15 18:27N 51°54' E 004°26'0 0.0
2017-Sep-15 18:00N 51°54' E 004°26'0 0.0
2017-Sep-15 17:29N 51°54' E 004°26'0 0.0
2017-Sep-15 16:59N 51°54' E 004°26'0 0.0
2017-Sep-15 16:29N 51°54' E 004°26'0 0.0
2017-Sep-15 15:59N 51°54' E 004°26'0 0.0
2017-Sep-15 15:29N 51°54' E 004°26'0 0.0
2017-Sep-15 14:59N 51°54' E 004°26'0 0.0
2017-Sep-15 14:29N 51°54' E 004°26'0 0.0
2017-Sep-15 13:59N 51°54' E 004°26'0 0.0
2017-Sep-15 13:29N 51°54' E 004°26'0 0.0
2017-Sep-15 12:59N 51°54' E 004°26'0 0.0
2017-Sep-15 12:29N 51°54' E 004°26'0 0.0
2017-Sep-15 11:59N 51°54' E 004°26'0 0.0
2017-Sep-15 11:29N 51°54' E 004°26'0 0.0
2017-Sep-15 10:59N 51°54' E 004°26'0 0.2
2017-Sep-15 10:31N 51°54' E 004°26'2 4.9
2017-Sep-15 10:00N 51°54' E 004°22'5 9.0
2017-Sep-15 09:30N 51°55' E 004°15'510.2
2017-Sep-15 09:00N 51°58' E 004°09'713.4
2017-Sep-15 08:30N 52°00' E 003°59'713.4
2017-Sep-15 08:00N 51°60' E 003°48'713.2
2017-Sep-15 07:30N 51°56' E 003°39'1014.6
2017-Sep-15 06:49N 51°53' E 003°23'3814.7
2017-Sep-15 04:15N 51°38' E 002°27'816.2
2017-Sep-15 03:46N 51°32' E 002°19'416.0
2017-Sep-15 03:30N 51°28' E 002°15'815.8
2017-Sep-15 03:01N 51°22' E 002°09'815.8
2017-Sep-15 02:31N 51°14' E 002°04'815.6
2017-Sep-15 02:01N 51°10' E 001°54'713.3
2017-Sep-15 01:31N 51°09' E 001°43'713.3
2017-Sep-15 01:00N 51°15' E 001°38'714.2
2017-Sep-15 00:31N 51°22' E 001°35'611.5
2017-Sep-15 00:01N 51°26' E 001°28'714.7
2017-Sep-14 23:30N 51°29' E 001°17'816.2
2017-Sep-14 23:00N 51°30' E 001°04'816.3
2017-Sep-14 22:29N 51°29' E 000°51'3 0.2
2017-Sep-14 08:37N 51°29' E 000°55'215.2
2017-Sep-14 08:30N 51°29' E 000°58'714.4
2017-Sep-14 08:00N 51°29' E 001°09'815.1
2017-Sep-14 07:31N 51°28' E 001°21'714.8
2017-Sep-14 07:00N 51°25' E 001°32'510.7
2017-Sep-14 06:30N 51°21' E 001°37'713.3
2017-Sep-14 06:00N 51°14' E 001°40'714.2
2017-Sep-14 05:30N 51°07' E 001°42'714.7
2017-Sep-14 05:00N 51°02' E 001°35'815.9
2017-Sep-14 04:30N 50°56' E 001°26'5214.8
2017-Sep-14 00:59N 50°24' E 000°21'816.9
2017-Sep-14 00:30N 50°22' E 000°09'816.7
2017-Sep-14 00:00N 50°19' W 000°04'816.9
2017-Sep-13 23:30N 50°17' W 000°17'1016.8
2017-Sep-13 22:56N 50°15' W 000°31'1816.6
2017-Sep-13 21:51N 50°11' W 000°58'616.7
2017-Sep-13 21:30N 50°09' W 001°07'817.0
2017-Sep-13 21:00N 50°07' W 001°20'816.8
2017-Sep-13 20:30N 50°05' W 001°33'816.4
2017-Sep-13 20:00N 50°03' W 001°45'816.4
2017-Sep-13 19:30N 50°00' W 001°57'815.9
2017-Sep-13 19:00N 49°58' W 002°09'2416.1
2017-Sep-13 17:31N 49°52' W 002°45'016.4
2017-Sep-13 17:30N 49°52' W 002°45'1516.0
2017-Sep-13 16:35N 49°46' W 003°06'116.3
2017-Sep-13 16:30N 49°46' W 003°08'816.3
2017-Sep-13 16:00N 49°42' W 003°19'816.4
2017-Sep-13 15:30N 49°40' W 003°32'816.0
2017-Sep-13 15:00N 49°38' W 003°44'1316.2
2017-Sep-13 14:13N 49°38' W 004°03'516.3
2017-Sep-13 13:55N 49°38' W 004°11'  
Track history (hours):
 
Tides and Currents Weather Stations Pressure Air Temp Water Temp Dewpoint Dewpoint Depression Visibility Wind Speed Wind Dir Waves Ship Positions

APL Managua

Last reported at 2017-Sep-20 22:57 UTC. Time now 2017-Sep-25 13:37 UTC.
Position N 37°26' W 027°03'.

Length 166 m; draft 7.9 m.

Type: Ship. MMSI: 305208000.

Date/timePositionNaut miles runAvg speedWind from/ knotsBaromVisibWave heightAir tempDewpointWater temp
2017-Sep-20 22:57N 37°26' W 027°03'918.5
2017-Sep-20 22:28N 37°30' W 026°53'918.3
2017-Sep-20 22:00N 37°35' W 026°44'918.5
2017-Sep-20 21:30N 37°39' W 026°34'918.8
2017-Sep-20 21:00N 37°44' W 026°23'918.8
2017-Sep-20 20:31N 37°50' W 026°14'918.8
2017-Sep-20 20:01N 37°56' W 026°05'1019.3
2017-Sep-20 19:31N 38°03' W 025°56'918.9
2017-Sep-20 19:01N 38°09' W 025°47'1019.1
2017-Sep-20 18:31N 38°15' W 025°38'1019.2
2017-Sep-20 18:01N 38°22' W 025°29'918.8
2017-Sep-20 17:31N 38°28' W 025°20'1019.2
2017-Sep-20 17:00N 38°34' W 025°11'1019.5
2017-Sep-20 16:30N 38°41' W 025°01'1019.1
2017-Sep-20 16:01N 38°47' W 024°52'1119.3
2017-Sep-20 15:27N 38°54' W 024°42'  
2017-Sep-18 07:33N 48°57' W 005°42'6318.4
2017-Sep-18 04:07N 49°29' W 004°18'917.4
2017-Sep-18 03:37N 49°33' W 004°06'217.4
2017-Sep-18 03:30N 49°34' W 004°04'917.5
2017-Sep-18 03:00N 49°38' W 003°52'917.8
2017-Sep-18 02:30N 49°43' W 003°40'918.2
2017-Sep-18 02:00N 49°47' W 003°27'918.7
2017-Sep-18 01:30N 49°51' W 003°14'1019.5
2017-Sep-18 01:00N 49°55' W 003°01'1020.2
2017-Sep-18 00:30N 49°59' W 002°46'3121.0
2017-Sep-17 23:02N 50°01' W 001°58'020.4
2017-Sep-17 23:00N 50°01' W 001°57'1121.2
2017-Sep-17 22:30N 49°60' W 001°41'1020.3
2017-Sep-17 22:00N 49°59' W 001°25'1019.6
2017-Sep-17 21:30N 49°57' W 001°10'918.0
2017-Sep-17 21:01N 49°55' W 000°57'918.1
2017-Sep-17 20:30N 49°49' W 000°46'1717.8
2017-Sep-17 19:34N 49°38' W 000°26'117.9
2017-Sep-17 19:29N 49°37' W 000°24'917.5
2017-Sep-17 19:00N 49°32' W 000°14'817.1
2017-Sep-17 18:30N 49°29' W 000°02'713.7
2017-Sep-17 18:01N 49°26' E 000°08'612.5
2017-Sep-17 17:31N 49°26' E 000°17'611.4
2017-Sep-17 17:00N 49°27' E 000°26'2 0.2
2017-Sep-17 07:29N 49°28' E 000°28'613.4
2017-Sep-17 07:01N 49°26' E 000°19'713.3
2017-Sep-17 06:30N 49°26' E 000°09'713.8
2017-Sep-17 06:01N 49°28' W 000°01'5 9.3
2017-Sep-17 05:30N 49°30' W 000°08'3 5.7
2017-Sep-17 05:00N 49°30' W 000°12'3 6.7
2017-Sep-17 04:30N 49°32' W 000°16'3 7.0
2017-Sep-17 04:00N 49°35' W 000°19'4 7.1
2017-Sep-17 03:30N 49°38' W 000°23'1 1.3
2017-Sep-17 02:33N 49°38' W 000°21'0 5.9
2017-Sep-17 02:30N 49°37' W 000°21'13 9.2
2017-Sep-17 01:05N 49°50' W 000°24'3510.3
2017-Sep-16 21:40N 50°25' W 000°20'210.5
2017-Sep-16 21:30N 50°26' W 000°17'510.7
2017-Sep-16 21:00N 50°27' W 000°09'510.6
2017-Sep-16 20:30N 50°28' W 000°01'510.5
2017-Sep-16 20:00N 50°30' E 000°07'510.6
2017-Sep-16 19:30N 50°31' E 000°15'510.8
2017-Sep-16 19:00N 50°32' E 000°23'510.6
2017-Sep-16 18:30N 50°34' E 000°31'510.4
2017-Sep-16 18:00N 50°35' E 000°39'510.6
2017-Sep-16 17:29N 50°39' E 000°46'510.6
2017-Sep-16 17:00N 50°42' E 000°53'510.4
2017-Sep-16 16:30N 50°44' E 000°59'610.4
2017-Sep-16 15:56N 50°48' E 001°07'510.5
2017-Sep-16 15:28N 50°50' E 001°14'510.3
2017-Sep-16 15:00N 50°54' E 001°18'611.0
2017-Sep-16 14:30N 50°59' E 001°23'611.0
2017-Sep-16 14:00N 51°03' E 001°30'510.7
2017-Sep-16 13:30N 51°06' E 001°35'510.8
2017-Sep-16 13:00N 51°10' E 001°41'510.6
2017-Sep-16 12:30N 51°15' E 001°47'510.6
2017-Sep-16 12:00N 51°19' E 001°50'510.8
2017-Sep-16 11:30N 51°24' E 001°55'510.6
2017-Sep-16 11:00N 51°28' E 001°60'510.6
2017-Sep-16 10:30N 51°32' E 002°05'510.6
2017-Sep-16 10:00N 51°37' E 002°10'510.4
2017-Sep-16 09:30N 51°41' E 002°16'610.2
2017-Sep-16 08:56N 51°45' E 002°22'4910.6
2017-Sep-16 04:18N 52°04' E 003°36'413.4
2017-Sep-16 04:00N 52°03' E 003°43'713.7
2017-Sep-16 03:31N 52°02' E 003°53'612.0
2017-Sep-16 03:01N 51°60' E 004°02'815.2
2017-Sep-16 02:30N 51°56' E 004°13'510.8
2017-Sep-16 02:00N 51°54' E 004°21'3 7.0
2017-Sep-16 01:31N 51°54' E 004°27'0 0.4
2017-Sep-16 00:57N 51°54' E 004°26'0 0.0
2017-Sep-16 00:27N 51°54' E 004°26'0 0.0
2017-Sep-15 23:57N 51°54' E 004°26'0 0.0
2017-Sep-15 23:27N 51°54' E 004°26'0 0.0
2017-Sep-15 22:57N 51°54' E 004°26'0 0.0
2017-Sep-15 22:27N 51°54' E 004°26'0 0.0
2017-Sep-15 21:57N 51°54' E 004°26'0 0.0
2017-Sep-15 21:27N 51°54' E 004°26'0 0.0
2017-Sep-15 20:57N 51°54' E 004°26'0 0.0
2017-Sep-15 20:27N 51°54' E 004°26'0 0.0
2017-Sep-15 19:57N 51°54' E 004°26'0 0.0
2017-Sep-15 19:27N 51°54' E 004°26'0 0.0
2017-Sep-15 18:57N 51°54' E 004°26'0 0.0
2017-Sep-15 18:27N 51°54' E 004°26'0 0.0
2017-Sep-15 18:00N 51°54' E 004°26'0 0.0
2017-Sep-15 17:29N 51°54' E 004°26'0 0.0
2017-Sep-15 16:59N 51°54' E 004°26'0 0.0
2017-Sep-15 16:29N 51°54' E 004°26'0 0.0
2017-Sep-15 15:59N 51°54' E 004°26'0 0.0
2017-Sep-15 15:29N 51°54' E 004°26'0 0.0
2017-Sep-15 14:59N 51°54' E 004°26'0 0.0
2017-Sep-15 14:29N 51°54' E 004°26'0 0.0
2017-Sep-15 13:59N 51°54' E 004°26'0 0.0
2017-Sep-15 13:29N 51°54' E 004°26'0 0.0
2017-Sep-15 12:59N 51°54' E 004°26'0 0.0
2017-Sep-15 12:29N 51°54' E 004°26'0 0.0
2017-Sep-15 11:59N 51°54' E 004°26'0 0.0
2017-Sep-15 11:29N 51°54' E 004°26'0 0.0
2017-Sep-15 10:59N 51°54' E 004°26'0 0.2
2017-Sep-15 10:31N 51°54' E 004°26'2 4.9
2017-Sep-15 10:00N 51°54' E 004°22'5 9.0
2017-Sep-15 09:30N 51°55' E 004°15'510.2
2017-Sep-15 09:00N 51°58' E 004°09'713.4
2017-Sep-15 08:30N 52°00' E 003°59'713.4
2017-Sep-15 08:00N 51°60' E 003°48'713.2
2017-Sep-15 07:30N 51°56' E 003°39'1014.6
2017-Sep-15 06:49N 51°53' E 003°23'3814.7
2017-Sep-15 04:15N 51°38' E 002°27'816.2
2017-Sep-15 03:46N 51°32' E 002°19'416.0
2017-Sep-15 03:30N 51°28' E 002°15'815.8
2017-Sep-15 03:01N 51°22' E 002°09'815.8
2017-Sep-15 02:31N 51°14' E 002°04'815.6
2017-Sep-15 02:01N 51°10' E 001°54'713.3
2017-Sep-15 01:31N 51°09' E 001°43'713.3
2017-Sep-15 01:00N 51°15' E 001°38'714.2
2017-Sep-15 00:31N 51°22' E 001°35'611.5
2017-Sep-15 00:01N 51°26' E 001°28'714.7
2017-Sep-14 23:30N 51°29' E 001°17'816.2
2017-Sep-14 23:00N 51°30' E 001°04'816.3
2017-Sep-14 22:29N 51°29' E 000°51'3 0.2
2017-Sep-14 08:37N 51°29' E 000°55'215.2
2017-Sep-14 08:30N 51°29' E 000°58'714.4
2017-Sep-14 08:00N 51°29' E 001°09'815.1
2017-Sep-14 07:31N 51°28' E 001°21'714.8
2017-Sep-14 07:00N 51°25' E 001°32'510.7
2017-Sep-14 06:30N 51°21' E 001°37'713.3
2017-Sep-14 06:00N 51°14' E 001°40'714.2
2017-Sep-14 05:30N 51°07' E 001°42'714.7
2017-Sep-14 05:00N 51°02' E 001°35'815.9
2017-Sep-14 04:30N 50°56' E 001°26'5214.8
2017-Sep-14 00:59N 50°24' E 000°21'816.9
2017-Sep-14 00:30N 50°22' E 000°09'816.7
2017-Sep-14 00:00N 50°19' W 000°04'816.9
2017-Sep-13 23:30N 50°17' W 000°17'1016.8
2017-Sep-13 22:56N 50°15' W 000°31'1816.6
2017-Sep-13 21:51N 50°11' W 000°58'616.7
2017-Sep-13 21:30N 50°09' W 001°07'817.0
2017-Sep-13 21:00N 50°07' W 001°20'816.8
2017-Sep-13 20:30N 50°05' W 001°33'816.4
2017-Sep-13 20:00N 50°03' W 001°45'816.4
2017-Sep-13 19:30N 50°00' W 001°57'815.9
2017-Sep-13 19:00N 49°58' W 002°09'2416.1
2017-Sep-13 17:31N 49°52' W 002°45'016.4
2017-Sep-13 17:30N 49°52' W 002°45'1516.0
2017-Sep-13 16:35N 49°46' W 003°06'116.3
2017-Sep-13 16:30N 49°46' W 003°08'816.3
2017-Sep-13 16:00N 49°42' W 003°19'816.4
2017-Sep-13 15:30N 49°40' W 003°32'816.0
2017-Sep-13 15:00N 49°38' W 003°44'1316.2
2017-Sep-13 14:13N 49°38' W 004°03'516.3
2017-Sep-13 13:55N 49°38' W 004°11'  

Dump ship's entire track history